sensor_id;sensor_type;location;lat;lon;timestamp;pressure;altitude;pressure_sealevel;temperature;humidity
38054;BME280;23859;50.672;7.164;2022-10-16T00:00:39;100369.13;;;14.61;100.00
38054;BME280;23859;50.672;7.164;2022-10-16T00:03:06;100372.50;;;14.63;100.00
38054;BME280;23859;50.672;7.164;2022-10-16T00:05:37;100378.69;;;14.56;100.00
38054;BME280;23859;50.672;7.164;2022-10-16T00:08:03;100372.31;;;14.64;100.00
38054;BME280;23859;50.672;7.164;2022-10-16T00:10:29;100363.94;;;14.75;100.00
38054;BME280;23859;50.672;7.164;2022-10-16T00:12:55;100377.34;;;14.67;100.00
38054;BME280;23859;50.672;7.164;2022-10-16T00:15:21;100379.50;;;14.56;100.00
38054;BME280;23859;50.672;7.164;2022-10-16T00:17:47;100380.34;;;14.49;100.00
38054;BME280;23859;50.672;7.164;2022-10-16T00:20:14;100380.34;;;14.49;100.00
38054;BME280;23859;50.672;7.164;2022-10-16T00:22:40;100377.34;;;14.52;100.00
38054;BME280;23859;50.672;7.164;2022-10-16T00:25:06;100386.03;;;14.54;100.00
38054;BME280;23859;50.672;7.164;2022-10-16T00:27:33;100379.34;;;14.50;100.00
38054;BME280;23859;50.672;7.164;2022-10-16T00:29:59;100384.03;;;14.56;100.00
38054;BME280;23859;50.672;7.164;2022-10-16T00:32:25;100388.03;;;14.52;100.00
38054;BME280;23859;50.672;7.164;2022-10-16T00:34:51;100380.69;;;14.54;100.00
38054;BME280;23859;50.672;7.164;2022-10-16T00:37:20;100381.03;;;14.51;100.00
38054;BME280;23859;50.672;7.164;2022-10-16T00:39:46;100381.34;;;14.48;100.00
38054;BME280;23859;50.672;7.164;2022-10-16T00:42:16;100384.34;;;14.45;100.00
38054;BME280;23859;50.672;7.164;2022-10-16T00:44:50;100392.56;;;14.43;100.00
38054;BME280;23859;50.672;7.164;2022-10-16T00:47:27;100399.72;;;14.43;100.00
38054;BME280;23859;50.672;7.164;2022-10-16T00:49:58;100386.69;;;14.40;100.00
38054;BME280;23859;50.672;7.164;2022-10-16T00:52:25;100368.28;;;14.37;100.00
38054;BME280;23859;50.672;7.164;2022-10-16T00:54:53;100382.34;;;14.39;100.00
38054;BME280;23859;50.672;7.164;2022-10-16T00:57:20;100384.34;;;14.37;100.00
38054;BME280;23859;50.672;7.164;2022-10-16T00:59:46;100377.34;;;14.36;100.00
38054;BME280;23859;50.672;7.164;2022-10-16T01:02:14;100385.50;;;14.34;100.00
38054;BME280;23859;50.672;7.164;2022-10-16T01:04:50;100406.41;;;14.31;100.00
38054;BME280;23859;50.672;7.164;2022-10-16T01:15:12;100301.88;;;13.69;100.00
38054;BME280;23859;50.672;7.164;2022-10-16T01:17:53;100393.19;;;14.21;100.00
38054;BME280;23859;50.672;7.164;2022-10-16T01:28:55;100382.50;;;14.21;100.00
38054;BME280;23859;50.672;7.164;2022-10-16T01:31:25;100397.53;;;14.22;100.00
38054;BME280;23859;50.672;7.164;2022-10-16T01:34:30;100393.66;;;14.09;100.00
38054;BME280;23859;50.672;7.164;2022-10-16T01:37:04;100396.34;;;14.09;100.00
38054;BME280;23859;50.672;7.164;2022-10-16T01:39:33;100394.13;;;14.04;100.00
38054;BME280;23859;50.672;7.164;2022-10-16T01:45:05;100396.00;;;14.12;100.00
38054;BME280;23859;50.672;7.164;2022-10-16T01:47:35;100396.09;;;14.02;100.00
38054;BME280;23859;50.672;7.164;2022-10-16T01:50:03;100396.44;;;14.07;100.00
38054;BME280;23859;50.672;7.164;2022-10-16T01:52:33;100399.94;;;14.00;100.00
38054;BME280;23859;50.672;7.164;2022-10-16T01:55:02;100404.13;;;13.95;100.00
38054;BME280;23859;50.672;7.164;2022-10-16T01:57:30;100409.63;;;13.93;100.00
38054;BME280;23859;50.672;7.164;2022-10-16T02:00:03;100412.31;;;13.93;100.00
38054;BME280;23859;50.672;7.164;2022-10-16T02:02:31;100405.94;;;13.94;100.00
38054;BME280;23859;50.672;7.164;2022-10-16T02:07:39;100412.47;;;13.99;100.00
38054;BME280;23859;50.672;7.164;2022-10-16T02:10:07;100405.97;;;14.02;100.00
38054;BME280;23859;50.672;7.164;2022-10-16T02:12:36;100403.59;;;13.99;100.00
38054;BME280;23859;50.672;7.164;2022-10-16T02:15:06;100404.81;;;14.04;100.00
38054;BME280;23859;50.672;7.164;2022-10-16T02:17:32;100411.22;;;14.11;100.00
38054;BME280;23859;50.672;7.164;2022-10-16T02:19:59;100410.88;;;14.14;100.00
38054;BME280;23859;50.672;7.164;2022-10-16T02:22:34;100407.72;;;14.19;100.00
38054;BME280;23859;50.672;7.164;2022-10-16T02:25:13;100406.03;;;14.18;100.00
38054;BME280;23859;50.672;7.164;2022-10-16T02:27:43;100402.72;;;14.24;100.00
38054;BME280;23859;50.672;7.164;2022-10-16T02:30:30;100401.72;;;14.25;100.00
38054;BME280;23859;50.672;7.164;2022-10-16T02:33:01;100409.56;;;14.26;100.00
38054;BME280;23859;50.672;7.164;2022-10-16T02:35:30;100406.41;;;14.31;100.00
38054;BME280;23859;50.672;7.164;2022-10-16T02:37:57;100408.06;;;14.48;100.00
38054;BME280;23859;50.672;7.164;2022-10-16T02:40:24;100411.59;;;14.56;100.00
38054;BME280;23859;50.672;7.164;2022-10-16T02:42:53;100415.44;;;14.46;100.00
38054;BME280;23859;50.672;7.164;2022-10-16T02:45:20;100416.75;;;14.42;100.00
38054;BME280;23859;50.672;7.164;2022-10-16T02:47:46;100419.81;;;14.47;100.00
38054;BME280;23859;50.672;7.164;2022-10-16T02:50:13;100421.63;;;14.46;100.00
38054;BME280;23859;50.672;7.164;2022-10-16T02:52:39;100425.47;;;14.44;100.00
38054;BME280;23859;50.672;7.164;2022-10-16T02:55:05;100429.97;;;14.35;100.00
38054;BME280;23859;50.672;7.164;2022-10-16T02:57:31;100430.31;;;14.32;100.00
38054;BME280;23859;50.672;7.164;2022-10-16T02:59:58;100423.09;;;14.33;100.00
38054;BME280;23859;50.672;7.164;2022-10-16T03:02:24;100416.91;;;14.24;100.00
38054;BME280;23859;50.672;7.164;2022-10-16T03:04:50;100432.13;;;14.24;100.00
38054;BME280;23859;50.672;7.164;2022-10-16T03:07:16;100425.91;;;14.23;100.00
38054;BME280;23859;50.672;7.164;2022-10-16T03:09:42;100421.75;;;14.21;100.00
38054;BME280;23859;50.672;7.164;2022-10-16T03:12:08;100403.38;;;14.18;100.00
38054;BME280;23859;50.672;7.164;2022-10-16T03:14:34;100407.38;;;14.22;100.00
38054;BME280;23859;50.672;7.164;2022-10-16T03:17:00;100411.03;;;14.21;100.00
38054;BME280;23859;50.672;7.164;2022-10-16T03:19:26;100410.09;;;14.30;100.00
38054;BME280;23859;50.672;7.164;2022-10-16T03:21:52;100416.91;;;14.24;100.00
38054;BME280;23859;50.672;7.164;2022-10-16T03:24:18;100422.28;;;14.32;100.00
38054;BME280;23859;50.672;7.164;2022-10-16T03:26:44;100424.44;;;14.29;100.00
38054;BME280;23859;50.672;7.164;2022-10-16T03:29:10;100426.94;;;14.30;100.00
38054;BME280;23859;50.672;7.164;2022-10-16T03:31:36;100424.09;;;14.32;100.00
38054;BME280;23859;50.672;7.164;2022-10-16T03:34:03;100426.47;;;14.51;100.00
38054;BME280;23859;50.672;7.164;2022-10-16T03:36:29;100420.13;;;14.44;100.00
38054;BME280;23859;50.672;7.164;2022-10-16T03:38:55;100404.06;;;14.44;100.00
38054;BME280;23859;50.672;7.164;2022-10-16T03:41:21;100397.56;;;14.46;100.00
38054;BME280;23859;50.672;7.164;2022-10-16T03:43:47;100358.44;;;14.21;100.00
38054;BME280;23859;50.672;7.164;2022-10-16T03:46:13;100418.78;;;14.63;100.00
38054;BME280;23859;50.672;7.164;2022-10-16T03:48:40;100410.13;;;14.62;100.00
38054;BME280;23859;50.672;7.164;2022-10-16T03:51:06;100406.44;;;14.63;100.00
38054;BME280;23859;50.672;7.164;2022-10-16T03:53:32;100409.59;;;14.74;100.00
38054;BME280;23859;50.672;7.164;2022-10-16T03:55:58;100412.97;;;14.76;100.00
38054;BME280;23859;50.672;7.164;2022-10-16T03:58:24;100421.13;;;14.90;100.00
38054;BME280;23859;50.672;7.164;2022-10-16T04:00:50;100420.47;;;14.80;100.00
38054;BME280;23859;50.672;7.164;2022-10-16T04:03:17;100430.19;;;14.89;100.00
38054;BME280;23859;50.672;7.164;2022-10-16T04:05:44;100424.00;;;14.97;100.00
38054;BME280;23859;50.672;7.164;2022-10-16T04:08:10;100424.81;;;14.97;100.00
38054;BME280;23859;50.672;7.164;2022-10-16T04:10:36;100431.50;;;14.93;100.00
38054;BME280;23859;50.672;7.164;2022-10-16T04:13:02;100440.69;;;14.99;100.00
38054;BME280;23859;50.672;7.164;2022-10-16T04:15:29;100443.91;;;14.94;100.00
38054;BME280;23859;50.672;7.164;2022-10-16T04:17:55;100448.06;;;14.89;100.00
38054;BME280;23859;50.672;7.164;2022-10-16T04:20:21;100445.88;;;14.92;100.00
38054;BME280;23859;50.672;7.164;2022-10-16T04:22:47;100447.22;;;15.04;100.00
38054;BME280;23859;50.672;7.164;2022-10-16T04:25:13;100443.22;;;15.00;100.00
38054;BME280;23859;50.672;7.164;2022-10-16T04:27:40;100447.22;;;14.96;100.00
38054;BME280;23859;50.672;7.164;2022-10-16T04:30:06;100446.72;;;14.93;100.00
38054;BME280;23859;50.672;7.164;2022-10-16T04:32:32;100459.44;;;14.91;100.00
38054;BME280;23859;50.672;7.164;2022-10-16T04:34:58;100463.13;;;14.90;100.00
38054;BME280;23859;50.672;7.164;2022-10-16T04:37:27;100460.47;;;14.98;100.00
38054;BME280;23859;50.672;7.164;2022-10-16T04:39:54;100460.63;;;15.04;100.00
38054;BME280;23859;50.672;7.164;2022-10-16T04:42:20;100466.16;;;15.03;100.00
38054;BME280;23859;50.672;7.164;2022-10-16T04:44:46;100453.75;;;15.02;100.00
38054;BME280;23859;50.672;7.164;2022-10-16T04:47:13;100464.63;;;15.00;100.00
38054;BME280;23859;50.672;7.164;2022-10-16T04:49:39;100467.47;;;15.07;100.00
38054;BME280;23859;50.672;7.164;2022-10-16T04:52:05;100268.84;;;13.78;100.00
38054;BME280;23859;50.672;7.164;2022-10-16T04:54:31;100471.81;;;15.08;100.00
38054;BME280;23859;50.672;7.164;2022-10-16T04:56:57;100488.72;;;15.08;100.00
38054;BME280;23859;50.672;7.164;2022-10-16T04:59:24;100486.38;;;15.05;100.00
38054;BME280;23859;50.672;7.164;2022-10-16T05:01:50;100493.56;;;15.05;100.00
38054;BME280;23859;50.672;7.164;2022-10-16T05:04:16;100485.88;;;15.18;100.00
38054;BME280;23859;50.672;7.164;2022-10-16T05:06:42;100496.09;;;15.22;100.00
38054;BME280;23859;50.672;7.164;2022-10-16T05:09:09;100488.72;;;15.24;100.00
38054;BME280;23859;50.672;7.164;2022-10-16T05:11:35;100482.72;;;15.30;100.00
38054;BME280;23859;50.672;7.164;2022-10-16T05:14:02;100467.97;;;15.34;100.00
38054;BME280;23859;50.672;7.164;2022-10-16T05:16:28;100479.69;;;15.41;100.00
38054;BME280;23859;50.672;7.164;2022-10-16T05:18:56;100478.34;;;15.37;100.00
38054;BME280;23859;50.672;7.164;2022-10-16T05:21:22;100479.53;;;15.34;100.00
38054;BME280;23859;50.672;7.164;2022-10-16T05:23:48;100485.84;;;15.41;100.00
38054;BME280;23859;50.672;7.164;2022-10-16T05:26:14;100476.69;;;15.36;100.00
38054;BME280;23859;50.672;7.164;2022-10-16T05:28:40;100475.81;;;15.43;100.00
38054;BME280;23859;50.672;7.164;2022-10-16T05:31:08;100376.84;;;14.80;100.00
38054;BME280;23859;50.672;7.164;2022-10-16T05:33:34;100473.66;;;15.39;100.00
38054;BME280;23859;50.672;7.164;2022-10-16T05:36:08;100479.84;;;15.39;100.00
38054;BME280;23859;50.672;7.164;2022-10-16T05:38:36;100471.97;;;15.38;100.00
38054;BME280;23859;50.672;7.164;2022-10-16T05:41:02;100469.47;;;15.44;100.00
38054;BME280;23859;50.672;7.164;2022-10-16T05:43:30;100474.97;;;15.51;100.00
38054;BME280;23859;50.672;7.164;2022-10-16T05:46:03;100475.47;;;15.46;100.00
38054;BME280;23859;50.672;7.164;2022-10-16T05:48:31;100490.53;;;15.47;100.00
38054;BME280;23859;50.672;7.164;2022-10-16T05:51:09;100490.72;;;15.46;100.00
38054;BME280;23859;50.672;7.164;2022-10-16T05:53:37;100484.03;;;15.42;100.00
38054;BME280;23859;50.672;7.164;2022-10-16T05:56:04;100498.59;;;15.39;100.00
38054;BME280;23859;50.672;7.164;2022-10-16T05:58:35;100495.41;;;15.52;100.00
38054;BME280;23859;50.672;7.164;2022-10-16T06:01:13;100499.44;;;15.48;100.00
38054;BME280;23859;50.672;7.164;2022-10-16T06:03:39;100498.56;;;15.47;100.00
38054;BME280;23859;50.672;7.164;2022-10-16T06:06:16;100508.47;;;15.47;100.00
38054;BME280;23859;50.672;7.164;2022-10-16T06:08:44;100504.44;;;15.59;100.00
38054;BME280;23859;50.672;7.164;2022-10-16T06:11:16;100507.09;;;15.67;100.00
38054;BME280;23859;50.672;7.164;2022-10-16T06:13:42;100514.81;;;15.62;100.00
38054;BME280;23859;50.672;7.164;2022-10-16T06:16:10;100521.16;;;15.69;100.00
38054;BME280;23859;50.672;7.164;2022-10-16T06:18:36;100537.56;;;15.66;100.00
38054;BME280;23859;50.672;7.164;2022-10-16T06:21:11;100532.19;;;15.74;100.00
38054;BME280;23859;50.672;7.164;2022-10-16T06:23:38;100549.97;;;15.67;100.00
38054;BME280;23859;50.672;7.164;2022-10-16T06:28:32;100551.31;;;15.55;100.00
38054;BME280;23859;50.672;7.164;2022-10-16T06:31:00;100549.97;;;15.67;100.00
38054;BME280;23859;50.672;7.164;2022-10-16T06:33:26;100559.34;;;15.63;100.00
38054;BME280;23859;50.672;7.164;2022-10-16T06:35:52;100552.63;;;15.67;100.00
38054;BME280;23859;50.672;7.164;2022-10-16T06:38:18;100561.19;;;15.62;100.00
38054;BME280;23859;50.672;7.164;2022-10-16T06:40:44;100563.22;;;15.60;100.00
38054;BME280;23859;50.672;7.164;2022-10-16T06:43:10;100561.03;;;15.56;100.00
38054;BME280;23859;50.672;7.164;2022-10-16T06:45:36;100565.56;;;15.55;100.00
38054;BME280;23859;50.672;7.164;2022-10-16T06:48:02;100574.91;;;15.59;100.00
38054;BME280;23859;50.672;7.164;2022-10-16T06:50:28;100580.09;;;15.61;100.00
38054;BME280;23859;50.672;7.164;2022-10-16T06:52:54;100594.34;;;15.61;100.00
38054;BME280;23859;50.672;7.164;2022-10-16T06:55:20;100594.81;;;15.65;100.00
38054;BME280;23859;50.672;7.164;2022-10-16T06:57:47;100599.84;;;15.76;100.00
38054;BME280;23859;50.672;7.164;2022-10-16T07:00:14;100604.38;;;15.75;100.00
38054;BME280;23859;50.672;7.164;2022-10-16T07:02:40;100612.06;;;15.78;100.00
38054;BME280;23859;50.672;7.164;2022-10-16T07:05:06;100599.97;;;16.06;100.00
38054;BME280;23859;50.672;7.164;2022-10-16T07:07:32;100601.47;;;16.16;100.00
38054;BME280;23859;50.672;7.164;2022-10-16T07:09:59;100603.28;;;16.24;100.00
38054;BME280;23859;50.672;7.164;2022-10-16T07:12:25;100621.59;;;16.28;100.00
38054;BME280;23859;50.672;7.164;2022-10-16T07:14:51;100630.25;;;16.38;100.00
38054;BME280;23859;50.672;7.164;2022-10-16T07:17:18;100647.69;;;16.18;100.00
38054;BME280;23859;50.672;7.164;2022-10-16T07:19:44;100649.22;;;16.21;100.00
38054;BME280;23859;50.672;7.164;2022-10-16T07:22:10;100651.75;;;16.22;100.00
38054;BME280;23859;50.672;7.164;2022-10-16T07:24:36;100644.00;;;16.35;100.00
38054;BME280;23859;50.672;7.164;2022-10-16T07:27:02;100648.72;;;16.33;100.00
38054;BME280;23859;50.672;7.164;2022-10-16T07:29:28;100651.41;;;16.33;100.00
38054;BME280;23859;50.672;7.164;2022-10-16T07:31:55;100662.97;;;16.42;100.00
38054;BME280;23859;50.672;7.164;2022-10-16T07:34:21;100673.69;;;16.42;100.00
38054;BME280;23859;50.672;7.164;2022-10-16T07:36:51;100683.69;;;16.56;100.00
38054;BME280;23859;50.672;7.164;2022-10-16T07:39:17;100693.94;;;16.52;100.00
38054;BME280;23859;50.672;7.164;2022-10-16T07:41:43;100700.50;;;16.50;100.00
38054;BME280;23859;50.672;7.164;2022-10-16T07:44:09;100706.66;;;16.58;100.00
38054;BME280;23859;50.672;7.164;2022-10-16T07:46:35;100712.22;;;16.57;100.00
38054;BME280;23859;50.672;7.164;2022-10-16T07:49:02;100701.81;;;16.54;100.00
38054;BME280;23859;50.672;7.164;2022-10-16T07:51:28;100706.81;;;16.72;100.00
38054;BME280;23859;50.672;7.164;2022-10-16T07:53:55;100706.75;;;16.80;100.00
38054;BME280;23859;50.672;7.164;2022-10-16T07:56:22;100704.69;;;16.98;100.00
38054;BME280;23859;50.672;7.164;2022-10-16T07:58:49;100708.09;;;17.23;99.11
38054;BME280;23859;50.672;7.164;2022-10-16T08:01:16;100712.28;;;17.25;98.84
38054;BME280;23859;50.672;7.164;2022-10-16T08:03:44;100718.66;;;17.32;98.52
38054;BME280;23859;50.672;7.164;2022-10-16T08:06:11;100709.09;;;17.22;98.00
38054;BME280;23859;50.672;7.164;2022-10-16T08:08:37;100725.47;;;17.42;97.16
38054;BME280;23859;50.672;7.164;2022-10-16T08:11:03;100729.13;;;17.49;96.98
38054;BME280;23859;50.672;7.164;2022-10-16T08:13:30;100726.63;;;17.48;97.45
38054;BME280;23859;50.672;7.164;2022-10-16T08:15:56;100724.03;;;17.62;95.08
38054;BME280;23859;50.672;7.164;2022-10-16T08:18:22;100731.50;;;17.75;94.78
38054;BME280;23859;50.672;7.164;2022-10-16T08:20:58;100732.34;;;17.45;96.91
38054;BME280;23859;50.672;7.164;2022-10-16T08:23:26;100723.47;;;17.36;97.53
38054;BME280;23859;50.672;7.164;2022-10-16T08:33:34;100739.31;;;17.24;97.71
38054;BME280;23859;50.672;7.164;2022-10-16T08:36:02;100735.22;;;17.43;97.17
38054;BME280;23859;50.672;7.164;2022-10-16T08:38:28;100749.56;;;17.58;96.40
38054;BME280;23859;50.672;7.164;2022-10-16T08:41:01;100753.19;;;17.73;95.52
38054;BME280;23859;50.672;7.164;2022-10-16T08:43:35;100753.72;;;17.91;94.17
38054;BME280;23859;50.672;7.164;2022-10-16T08:49:03;100751.75;;;18.30;91.41
38054;BME280;23859;50.672;7.164;2022-10-16T08:51:35;100762.94;;;18.56;87.83
38054;BME280;23859;50.672;7.164;2022-10-16T08:54:12;100755.81;;;18.77;85.50
38054;BME280;23859;50.672;7.164;2022-10-16T08:56:41;100761.38;;;18.61;83.78
38054;BME280;23859;50.672;7.164;2022-10-16T08:59:10;100767.03;;;18.80;83.46
38054;BME280;23859;50.672;7.164;2022-10-16T09:01:45;100770.44;;;19.11;82.27
38054;BME280;23859;50.672;7.164;2022-10-16T09:04:40;100778.56;;;19.03;81.98
38054;BME280;23859;50.672;7.164;2022-10-16T09:07:17;100781.84;;;18.99;81.93
38054;BME280;23859;50.672;7.164;2022-10-16T09:12:28;100784.88;;;18.81;81.75
38054;BME280;23859;50.672;7.164;2022-10-16T09:15:19;100774.50;;;18.78;81.47
38054;BME280;23859;50.672;7.164;2022-10-16T09:17:54;100778.13;;;18.85;82.10
38054;BME280;23859;50.672;7.164;2022-10-16T09:20:59;100785.81;;;18.88;80.48
38054;BME280;23859;50.672;7.164;2022-10-16T09:23:29;100788.69;;;18.72;80.63
38054;BME280;23859;50.672;7.164;2022-10-16T09:25:58;100788.75;;;18.65;80.66
38054;BME280;23859;50.672;7.164;2022-10-16T09:28:25;100784.53;;;18.84;80.70
38054;BME280;23859;50.672;7.164;2022-10-16T09:30:51;100792.50;;;18.92;80.78
38054;BME280;23859;50.672;7.164;2022-10-16T09:33:23;100790.47;;;18.94;80.23
38054;BME280;23859;50.672;7.164;2022-10-16T09:35:55;100793.38;;;18.93;79.63
38054;BME280;23859;50.672;7.164;2022-10-16T09:44:52;100775.09;;;19.17;78.81
38054;BME280;23859;50.672;7.164;2022-10-16T09:47:22;100776.22;;;19.58;76.86
38054;BME280;23859;50.672;7.164;2022-10-16T09:49:57;100771.63;;;20.08;74.45
38054;BME280;23859;50.672;7.164;2022-10-16T09:52:26;100771.56;;;20.22;73.69
38054;BME280;23859;50.672;7.164;2022-10-16T09:54:59;100785.16;;;20.56;73.35
38054;BME280;23859;50.672;7.164;2022-10-16T09:57:26;100776.13;;;20.43;72.00
38054;BME280;23859;50.672;7.164;2022-10-16T09:59:54;100781.03;;;20.33;70.78
38054;BME280;23859;50.672;7.164;2022-10-16T10:02:29;100776.91;;;20.16;72.41
38054;BME280;23859;50.672;7.164;2022-10-16T10:04:56;100777.38;;;20.47;71.65
38054;BME280;23859;50.672;7.164;2022-10-16T10:07:28;100769.09;;;21.37;68.82
38054;BME280;23859;50.672;7.164;2022-10-16T10:09:57;100760.81;;;22.23;65.95
38054;BME280;23859;50.672;7.164;2022-10-16T10:12:25;100757.44;;;23.12;61.14
38054;BME280;23859;50.672;7.164;2022-10-16T10:15:06;100764.34;;;24.32;56.52
38054;BME280;23859;50.672;7.164;2022-10-16T10:17:33;100768.69;;;25.13;54.42
38054;BME280;23859;50.672;7.164;2022-10-16T10:20:18;100757.63;;;25.08;53.08
38054;BME280;23859;50.672;7.164;2022-10-16T10:22:46;100768.63;;;26.02;51.09
38054;BME280;23859;50.672;7.164;2022-10-16T10:30:56;100763.31;;;26.07;49.06
38054;BME280;23859;50.672;7.164;2022-10-16T10:33:33;100757.63;;;27.80;46.21
38054;BME280;23859;50.672;7.164;2022-10-16T10:36:25;100764.59;;;28.92;42.65
38054;BME280;23859;50.672;7.164;2022-10-16T10:44:25;100764.38;;;27.38;44.84
38054;BME280;23859;50.672;7.164;2022-10-16T10:47:11;100773.22;;;25.72;48.51
38054;BME280;23859;50.672;7.164;2022-10-16T10:58:13;100777.56;;;24.60;50.47
38054;BME280;23859;50.672;7.164;2022-10-16T11:09:12;100784.00;;;21.26;61.62
38054;BME280;23859;50.672;7.164;2022-10-16T11:11:42;100790.69;;;20.96;63.36
38054;BME280;23859;50.672;7.164;2022-10-16T11:14:22;100791.94;;;20.94;65.02
38054;BME280;23859;50.672;7.164;2022-10-16T11:16:58;100799.53;;;21.18;63.20
38054;BME280;23859;50.672;7.164;2022-10-16T11:25:00;100777.22;;;21.43;60.59
38054;BME280;23859;50.672;7.164;2022-10-16T11:27:40;100782.66;;;21.49;61.58
38054;BME280;23859;50.672;7.164;2022-10-16T11:30:28;100785.53;;;21.42;61.19
38054;BME280;23859;50.672;7.164;2022-10-16T11:38:36;100797.25;;;21.15;64.13
38054;BME280;23859;50.672;7.164;2022-10-16T11:41:23;100800.06;;;21.34;62.90
38054;BME280;23859;50.672;7.164;2022-10-16T11:44:16;100789.16;;;21.15;64.25
38054;BME280;23859;50.672;7.164;2022-10-16T11:46:46;100784.66;;;21.35;62.93
38054;BME280;23859;50.672;7.164;2022-10-16T11:49:20;100798.41;;;21.40;62.38
38054;BME280;23859;50.672;7.164;2022-10-16T11:54:30;100801.88;;;21.21;65.23
38054;BME280;23859;50.672;7.164;2022-10-16T11:57:07;100805.31;;;21.08;66.22
38054;BME280;23859;50.672;7.164;2022-10-16T11:59:58;100807.50;;;21.26;66.49
38054;BME280;23859;50.672;7.164;2022-10-16T12:05:25;100792.16;;;20.99;66.97
38054;BME280;23859;50.672;7.164;2022-10-16T12:08:09;100802.66;;;21.15;67.01
38054;BME280;23859;50.672;7.164;2022-10-16T12:10:37;100792.41;;;21.04;65.73
38054;BME280;23859;50.672;7.164;2022-10-16T12:13:05;100794.34;;;21.16;63.27
38054;BME280;23859;50.672;7.164;2022-10-16T12:15:50;100783.41;;;21.31;63.95
38054;BME280;23859;50.672;7.164;2022-10-16T12:18:26;100787.06;;;21.57;64.61
38054;BME280;23859;50.672;7.164;2022-10-16T12:20:56;100794.59;;;21.61;64.47
38054;BME280;23859;50.672;7.164;2022-10-16T12:23:25;100792.72;;;21.62;64.12
38054;BME280;23859;50.672;7.164;2022-10-16T12:25:59;100786.34;;;21.36;64.84
38054;BME280;23859;50.672;7.164;2022-10-16T12:28:43;100796.81;;;21.51;65.02
38054;BME280;23859;50.672;7.164;2022-10-16T12:31:14;100805.72;;;21.39;64.24
38054;BME280;23859;50.672;7.164;2022-10-16T12:33:42;100789.72;;;21.50;64.48
38054;BME280;23859;50.672;7.164;2022-10-16T12:36:26;100789.91;;;21.89;62.81
38054;BME280;23859;50.672;7.164;2022-10-16T12:38:54;100792.41;;;21.97;63.33
38054;BME280;23859;50.672;7.164;2022-10-16T12:41:34;100793.22;;;21.91;62.40
38054;BME280;23859;50.672;7.164;2022-10-16T12:44:02;100801.78;;;21.95;61.54
38054;BME280;23859;50.672;7.164;2022-10-16T12:51:41;100797.75;;;21.65;62.58
38054;BME280;23859;50.672;7.164;2022-10-16T12:56:54;100784.00;;;21.66;63.25
38054;BME280;23859;50.672;7.164;2022-10-16T13:05:27;100773.09;;;22.26;60.93
38054;BME280;23859;50.672;7.164;2022-10-16T13:11:19;100775.56;;;22.08;59.51
38054;BME280;23859;50.672;7.164;2022-10-16T13:22:21;100793.75;;;22.27;62.51
38054;BME280;23859;50.672;7.164;2022-10-16T13:24:53;100799.97;;;22.21;64.34
38054;BME280;23859;50.672;7.164;2022-10-16T13:27:56;100783.31;;;22.17;64.32
38054;BME280;23859;50.672;7.164;2022-10-16T13:30:26;100791.00;;;22.14;64.73
38054;BME280;23859;50.672;7.164;2022-10-16T13:33:06;100796.13;;;21.83;64.76
38054;BME280;23859;50.672;7.164;2022-10-16T13:35:34;100801.09;;;21.73;65.01
38054;BME280;23859;50.672;7.164;2022-10-16T13:38:21;100808.50;;;21.52;65.85
38054;BME280;23859;50.672;7.164;2022-10-16T13:40:57;100801.69;;;21.29;67.25
38054;BME280;23859;50.672;7.164;2022-10-16T13:43:48;100809.56;;;21.24;67.88
38054;BME280;23859;50.672;7.164;2022-10-16T13:46:20;100798.31;;;21.20;68.01
38054;BME280;23859;50.672;7.164;2022-10-16T13:49:05;100805.59;;;21.20;68.34
38054;BME280;23859;50.672;7.164;2022-10-16T13:51:33;100793.00;;;21.40;68.17
38054;BME280;23859;50.672;7.164;2022-10-16T13:53:59;100797.19;;;21.48;69.01
38054;BME280;23859;50.672;7.164;2022-10-16T13:56:27;100803.09;;;21.18;70.33
38054;BME280;23859;50.672;7.164;2022-10-16T13:59:01;100794.88;;;20.99;71.26
38054;BME280;23859;50.672;7.164;2022-10-16T14:01:41;100802.09;;;20.92;71.17
38054;BME280;23859;50.672;7.164;2022-10-16T14:04:11;100803.88;;;20.58;73.08
38054;BME280;23859;50.672;7.164;2022-10-16T14:06:45;100794.34;;;20.62;73.10
38054;BME280;23859;50.672;7.164;2022-10-16T14:09:27;100801.13;;;20.51;73.50
38054;BME280;23859;50.672;7.164;2022-10-16T14:12:00;100803.63;;;20.53;73.93
38054;BME280;23859;50.672;7.164;2022-10-16T14:14:44;100808.75;;;20.69;73.11
38054;BME280;23859;50.672;7.164;2022-10-16T14:17:23;100798.38;;;20.93;72.12
38054;BME280;23859;50.672;7.164;2022-10-16T14:19:52;100804.81;;;20.98;72.15
38054;BME280;23859;50.672;7.164;2022-10-16T14:22:36;100809.84;;;21.01;72.43
38054;BME280;23859;50.672;7.164;2022-10-16T14:25:25;100808.16;;;20.94;72.69
38054;BME280;23859;50.672;7.164;2022-10-16T14:30:33;100796.50;;;21.00;73.53
38054;BME280;23859;50.672;7.164;2022-10-16T14:33:04;100796.97;;;21.03;73.49
38054;BME280;23859;50.672;7.164;2022-10-16T14:35:36;100788.72;;;20.84;75.22
38054;BME280;23859;50.672;7.164;2022-10-16T14:38:05;100798.25;;;20.80;75.73
38054;BME280;23859;50.672;7.164;2022-10-16T14:40:34;100795.19;;;20.83;75.92
38054;BME280;23859;50.672;7.164;2022-10-16T14:43:02;100790.72;;;21.03;75.22
38054;BME280;23859;50.672;7.164;2022-10-16T14:45:30;100802.84;;;20.79;75.96
38054;BME280;23859;50.672;7.164;2022-10-16T14:48:06;100800.22;;;20.72;76.82
38054;BME280;23859;50.672;7.164;2022-10-16T14:50:40;100801.88;;;20.66;77.13
38054;BME280;23859;50.672;7.164;2022-10-16T14:53:12;100799.63;;;20.70;76.38
38054;BME280;23859;50.672;7.164;2022-10-16T14:55:39;100801.25;;;20.71;77.33